Latest Weather Observations for Kalumburu

IDW60801

Issued at 10:34 am WST Thursday 23 February 2017 (issued every 30 minutes, with the page automatically refreshed every 10 minutes)

About weather observations | Map of weather stations | Latest weather observations for WA | Other Formats
Station Details ID: 001019 Name: KALUMBURU Lat: -14.30 Lon: 126.65 Height: 23.0 m
Data from the previous 72 hours. | See also: Recent months at Kalumburu
Date/Time
WST
Temp
°C
App
Temp
°C
Dew
Point
°C
Rel
Hum
%
Delta-T
°C
Wind Press
QNH
hPa
Press
MSL
hPa
Rain since
9am
mm
Dir  Spd
km/h
Gust
km/h
Spd
kts
Gust
kts
23/10:30am 34.5 36.7 20.5 44 9.4 S 9 15 5 8 1009.8 1009.6 0.0
23/10:00am 33.8 36.1 20.6 46 8.9 S 9 13 5 7 1010.2 1010.0 0.0
23/09:30am 32.6 36.2 22.1 54 7.2 SSW 6 11 3 6 1010.4 1010.2 0.0
23/09:00am 31.3 34.7 22.0 57 6.3 S 7 11 4 6 1010.7 1010.5 0.0
23/08:30am 30.1 33.3 22.3 63 5.3 SSW 9 11 5 6 1010.8 1010.6 0.0
23/08:00am 28.7 31.7 22.0 67 4.5 S 9 15 5 8 1010.9 1010.7 0.0
23/07:30am 27.4 31.0 22.4 74 3.4 S 7 9 4 5 1010.8 1010.6 0.0
23/07:00am 26.6 30.4 22.7 79 2.6 S 7 11 4 6 1010.9 1010.7 0.0
23/06:30am 25.0 30.5 23.4 91 1.1 CALM 0 0 0 0 1010.5 1010.3 0.0
23/06:00am 23.1 27.5 21.4 90 1.1 CALM 0 0 0 0 1010.2 1010.0 0.0
23/05:30am 22.7 26.8 20.8 89 1.2 CALM 0 6 0 3 1010.0 1009.8 0.0
23/05:00am 23.2 26.5 21.5 90 1.1 SSW 6 7 3 4 1009.9 1009.7 0.0
23/04:30am 23.2 27.7 21.5 90 1.1 CALM 0 0 0 0 1009.7 1009.5 0.0
23/04:00am 23.0 27.3 21.1 89 1.2 CALM 0 0 0 0 1009.6 1009.4 0.0
23/03:30am 23.6 28.3 21.9 90 1.1 CALM 0 0 0 0 1009.5 1009.3 0.0
23/03:00am 23.3 27.7 21.4 89 1.3 CALM 0 6 0 3 1009.5 1009.3 0.0
23/02:30am 23.8 27.3 21.9 89 1.3 ESE 6 9 3 5 1009.5 1009.3 0.0
23/02:00am 23.9 28.6 22.0 89 1.3 CALM 0 6 0 3 1009.5 1009.3 0.0
23/01:30am 23.9 28.5 21.8 88 1.4 CALM 0 0 0 0 1009.7 1009.5 0.0
23/01:00am 24.5 29.3 22.2 87 1.5 CALM 0 0 0 0 1009.9 1009.7 0.0
23/12:30am 24.6 29.5 22.3 87 1.5 CALM 0 0 0 0 1010.3 1010.1 0.0
23/12:00am 25.0 30.1 22.7 87 1.6 CALM 0 0 0 0 1010.7 1010.5 0.0
 
Date/Time
WST
Temp
°C
App
Temp
°C
Dew
Point
°C
Rel
Hum
%
Delta-T
°C
Wind Press
QNH
hPa
Press
MSL
hPa
Rain since
9am
mm
Dir  Spd
km/h
Gust
km/h
Spd
kts
Gust
kts
22/11:30pm 25.2 30.3 22.7 86 1.7 CALM 0 0 0 0 1011.2 1011.0 0.0
22/11:00pm 25.4 30.7 23.1 87 1.6 CALM 0 0 0 0 1011.6 1011.4 0.0
22/10:30pm 25.5 31.0 23.4 88 1.4 CALM 0 0 0 0 1011.9 1011.7 0.0
22/10:00pm 25.8 31.4 23.5 87 1.6 CALM 0 0 0 0 1012.0 1011.8 0.0
22/09:30pm 25.8 31.1 23.1 85 1.8 CALM 0 0 0 0 1011.9 1011.7 0.0
22/09:00pm 26.0 31.1 22.7 82 2.2 CALM 0 4 0 2 1011.7 1011.5 0.0
22/08:30pm 26.5 31.3 22.8 80 2.5 N 2 6 1 3 1011.4 1011.2 0.0
22/08:00pm 27.5 31.2 22.2 73 3.6 NW 6 9 3 5 1010.9 1010.7 0.0
22/07:30pm 27.8 31.8 21.3 67 4.3 NE 2 7 1 4 1010.5 1010.3 0.0
22/07:00pm 28.8 31.9 21.1 63 5.1 NNW 6 11 3 6 1009.7 1009.5 0.0
22/06:30pm 29.6 31.9 20.7 58 5.9 NW 9 15 5 8 1009.4 1009.2 0.0
22/06:00pm 30.2 31.5 20.2 55 6.6 WNW 13 20 7 11 1009.2 1009.0 0.0
22/05:30pm 31.4 33.0 20.7 53 7.1 WNW 13 20 7 11 1008.9 1008.7 0.0
22/05:00pm 32.7 33.4 19.6 46 8.7 WNW 15 24 8 13 1008.5 1008.3 0.0
22/04:30pm 33.8 35.0 19.8 43 9.3 NW 13 20 7 11 1008.2 1008.0 0.0
22/04:00pm 33.2 34.1 20.0 45 8.8 NNW 15 20 8 11 1008.1 1007.9 0.0
22/03:30pm 34.4 35.5 18.0 37 10.6 NNE 9 13 5 7 1008.2 1008.0 0.0
22/03:00pm 35.7 36.9 16.9 32 12.1 SSW 6 9 3 5 1008.3 1008.1 0.0
22/02:30pm 35.3 36.6 17.5 34 11.5 ESE 7 11 4 6 1008.6 1008.4 0.0
22/02:00pm 35.4 36.1 16.2 32 12.2 ESE 7 13 4 7 1008.9 1008.7 0.0
22/01:30pm 35.5 36.1 15.8 31 12.4 S 7 13 4 7 1009.2 1009.0 0.0
22/01:00pm 35.3 36.6 17.5 34 11.5 ENE 7 13 4 7 1009.5 1009.3 0.0
22/12:30pm 35.2 36.4 18.3 36 11.0 S 9 15 5 8 1009.9 1009.7 0.0
22/12:00pm 34.4 35.9 18.0 37 10.6 W 7 15 4 8 1010.2 1010.0 0.0
22/11:30am 34.9 36.2 18.5 38 10.7 SSE 9 17 5 9 1010.6 1010.4 0.0
22/11:00am 34.2 36.0 18.7 40 10.1 SW 7 13 4 7 1011.2 1011.0 0.0
22/10:30am 34.1 36.0 19.7 42 9.5 SW 9 15 5 8 1011.6 1011.4 0.0
22/10:00am 33.2 36.2 20.0 45 8.8 ESE 4 7 2 4 1011.9 1011.7 0.0
22/09:30am 32.3 35.1 20.5 49 7.9 SSW 6 9 3 5 1012.3 1012.1 0.0
22/09:00am 31.4 34.9 22.1 57 6.3 SSW 7 9 4 5 1012.4 1012.2 0.0
22/08:30am 30.4 34.4 22.8 64 5.2 ESE 6 7 3 4 1012.6 1012.4 -
22/08:00am 29.5 33.7 23.2 69 4.3 SSE 6 7 3 4 1012.5 1012.3 -
22/07:30am 28.2 32.8 23.8 77 3.0 SSW 6 7 3 4 1012.4 1012.2 -
22/07:00am 27.3 32.9 24.2 83 2.1 S 2 7 1 4 1012.3 1012.1 -
22/06:30am 25.0 30.5 23.4 91 1.1 CALM 0 0 0 0 1012.0 1011.8 -
22/06:00am 23.3 27.8 21.6 90 1.1 CALM 0 0 0 0 1011.9 1011.7 -
22/05:30am 23.0 27.4 21.3 90 1.1 CALM 0 0 0 0 1011.7 1011.5 -
22/05:00am 23.2 27.7 21.5 90 1.1 CALM 0 0 0 0 1011.4 1011.2 -
22/04:30am 23.4 28.0 21.7 90 1.1 CALM 0 0 0 0 1011.3 1011.1 -
22/04:00am 23.5 28.0 21.6 89 1.3 CALM 0 0 0 0 1010.8 1010.6 -
22/03:30am 23.9 28.7 22.2 90 1.1 CALM 0 0 0 0 1010.6 1010.4 -
22/03:00am 24.0 28.8 22.1 89 1.3 CALM 0 0 0 0 1010.5 1010.3 -
22/02:00am 24.0 28.8 22.1 89 1.3 CALM 0 0 0 0 1010.3 1010.1 0.0
22/01:30am 24.1 28.8 22.0 88 1.4 CALM 0 0 0 0 1010.3 1010.1 0.0
22/01:00am 24.2 29.0 22.1 88 1.4 CALM 0 0 0 0 1010.5 1010.3 0.0
22/12:30am 24.2 29.0 22.1 88 1.4 CALM 0 0 0 0 1010.7 1010.5 0.0
22/12:00am 24.2 28.9 21.9 87 1.5 CALM 0 0 0 0 1010.9 1010.7 0.0
 
Date/Time
WST
Temp
°C
App
Temp
°C
Dew
Point
°C
Rel
Hum
%
Delta-T
°C
Wind Press
QNH
hPa
Press
MSL
hPa
Rain since
9am
mm
Dir  Spd
km/h
Gust
km/h
Spd
kts
Gust
kts
21/11:30pm 24.4 29.3 22.3 88 1.4 CALM 0 0 0 0 1011.2 1011.0 0.0
21/11:00pm 24.5 29.3 22.2 87 1.5 CALM 0 0 0 0 1011.5 1011.3 0.0
21/10:30pm 24.9 29.7 22.2 85 1.8 CALM 0 0 0 0 1011.7 1011.5 0.0
21/10:00pm 25.2 30.3 22.7 86 1.7 CALM 0 0 0 0 1011.8 1011.6 0.0
21/09:30pm 25.2 30.1 22.3 84 1.9 CALM 0 0 0 0 1011.6 1011.4 0.0
21/09:00pm 25.5 30.3 22.2 82 2.2 CALM 0 0 0 0 1011.5 1011.3 0.0
21/08:30pm 26.0 30.3 21.2 75 3.2 CALM 0 0 0 0 1011.2 1011.0 0.0
21/08:00pm 26.0 30.3 21.9 78 2.7 E 2 7 1 4 1010.9 1010.7 0.0
21/07:30pm 26.3 31.2 22.4 79 2.6 CALM 0 0 0 0 1010.6 1010.4 0.0
21/07:00pm 27.3 31.1 20.9 68 4.2 N 2 7 1 4 1010.1 1009.9 0.0
21/06:30pm 29.0 30.8 19.6 57 6.1 NNW 9 11 5 6 1009.8 1009.6 0.0
21/06:00pm 29.8 31.2 19.5 54 6.7 NNW 11 15 6 8 1009.5 1009.3 0.0
21/05:30pm 30.6 30.7 18.3 47 7.9 N 15 20 8 11 1009.1 1008.9 0.0
21/05:00pm 31.4 31.7 19.7 49 7.7 N 17 24 9 13 1008.7 1008.5 0.0
21/04:30pm 32.5 34.2 21.0 50 7.7 N 13 20 7 11 1008.2 1008.0 0.0
21/04:00pm 33.1 34.9 20.3 47 8.5 NNW 11 17 6 9 1007.9 1007.7 0.0
21/03:30pm 34.5 36.0 18.1 37 10.7 N 7 11 4 6 1007.9 1007.7 0.0
21/03:00pm 35.2 36.6 17.4 34 11.5 SSE 6 13 3 7 1008.0 1007.8 0.0
21/02:30pm 34.4 35.5 18.0 37 10.6 NE 9 13 5 7 1008.3 1008.1 0.0
21/02:00pm 35.7 37.3 17.9 35 11.6 SSE 6 11 3 6 1008.6 1008.4 0.0
21/01:30pm 35.1 36.9 18.2 36 11.0 S 6 9 3 5 1008.9 1008.7 0.0
21/01:00pm 34.9 35.8 16.7 34 11.6 NNE 7 13 4 7 1009.3 1009.1 0.0
21/12:30pm 34.6 35.2 16.9 35 11.3 ENE 9 17 5 9 1009.9 1009.7 0.0
21/12:00pm 34.1 35.7 18.2 39 10.3 NNW 7 13 4 7 1010.5 1010.3 0.0
21/11:30am 34.4 37.7 21.4 46 8.8 ESE 6 11 3 6 1011.1 1010.9 0.0
21/11:00am 33.6 36.0 20.0 44 9.0 SSE 7 13 4 7 1011.5 1011.3 0.0
21/10:30am 33.2 35.8 20.0 45 8.8 WNW 6 9 3 5 1011.8 1011.6 0.0
21/10:00am 32.9 36.2 20.8 49 8.1 WSW 4 7 2 4 1012.1 1011.9 0.0
21/09:30am 32.0 35.2 20.6 51 7.6 SSW 4 9 2 5 1012.4 1012.2 0.0
21/09:00am 31.5 35.4 21.9 56 6.5 S 4 7 2 4 1012.6 1012.4 13.2
21/08:30am 30.3 35.5 23.5 67 4.7 SSW 2 7 1 4 1012.6 1012.4 13.2
21/08:00am 28.9 33.4 22.9 70 4.1 S 4 9 2 5 1012.5 1012.3 13.2
21/07:30am 27.7 32.3 23.1 76 3.1 SSW 4 6 2 3 1012.3 1012.1 13.2
21/07:00am 26.3 30.8 23.6 85 1.8 SSW 6 9 3 5 1011.9 1011.7 13.2
21/06:30am 24.9 29.2 23.3 91 1.1 SSE 6 7 3 4 1011.4 1011.2 13.2
21/06:00am 23.7 28.0 22.0 90 1.1 S 2 6 1 3 1011.1 1010.9 13.2
21/05:30am 23.4 28.0 21.7 90 1.1 CALM 0 0 0 0 1010.7 1010.5 13.2
21/05:00am 23.4 28.0 21.7 90 1.1 CALM 0 0 0 0 1010.3 1010.1 13.2
21/04:30am 23.4 27.5 21.5 89 1.3 S 2 6 1 3 1010.2 1010.0 13.2
21/04:00am 23.8 28.6 22.1 90 1.1 CALM 0 6 0 3 1009.9 1009.7 13.2
21/03:30am 24.0 27.7 22.3 90 1.1 S 6 9 3 5 1009.6 1009.4 13.2
21/03:00am 23.8 28.5 21.9 89 1.3 CALM 0 0 0 0 1009.3 1009.1 13.2
21/02:30am 24.3 29.2 22.4 89 1.3 CALM 0 0 0 0 1009.3 1009.1 13.2
21/02:00am 24.4 29.5 22.7 90 1.1 CALM 0 0 0 0 1009.2 1009.0 13.2
21/01:30am 24.6 29.7 22.7 89 1.3 CALM 0 0 0 0 1009.4 1009.2 13.2
21/01:00am 24.8 29.9 22.7 88 1.4 CALM 0 0 0 0 1009.7 1009.5 13.2
21/12:30am 24.9 30.1 22.8 88 1.4 CALM 0 0 0 0 1009.9 1009.7 13.2
21/12:00am 25.1 30.5 23.2 89 1.3 CALM 0 0 0 0 1010.0 1009.8 13.2
 
Date/Time
WST
Temp
°C
App
Temp
°C
Dew
Point
°C
Rel
Hum
%
Delta-T
°C
Wind Press
QNH
hPa
Press
MSL
hPa
Rain since
9am
mm
Dir  Spd
km/h
Gust
km/h
Spd
kts
Gust
kts
20/11:30pm 25.3 30.7 23.2 88 1.4 CALM 0 0 0 0 1010.4 1010.2 13.2
20/11:00pm 25.6 31.2 23.5 88 1.4 CALM 0 0 0 0 1010.6 1010.4 13.2
20/10:30pm 25.8 31.5 23.7 88 1.4 CALM 0 0 0 0 1010.9 1010.7 13.2
20/10:00pm 26.0 31.0 23.9 88 1.4 ESE 4 7 2 4 1010.9 1010.7 13.2
20/09:30pm 26.1 31.8 23.8 87 1.6 CALM 0 0 0 0 1010.8 1010.6 13.2
20/09:00pm 26.3 32.1 24.0 87 1.6 CALM 0 0 0 0 1010.5 1010.3 13.2
20/08:30pm 26.5 31.9 23.8 85 1.9 S 2 6 1 3 1010.4 1010.2 13.2
20/08:00pm 26.0 31.8 23.9 88 1.4 CALM 0 7 0 4 1010.3 1010.1 13.2
20/07:30pm 26.0 31.8 23.9 88 1.4 CALM 0 0 0 0 1010.0 1009.8 13.2
20/07:00pm 26.0 31.7 23.7 87 1.6 CALM 0 4 0 2 1009.7 1009.5 13.2
20/06:30pm 25.9 30.3 23.4 86 1.7 SE 6 7 3 4 1009.3 1009.1 13.2
20/06:00pm 26.1 30.6 23.0 83 2.1 NE 4 9 2 5 1008.9 1008.7 13.2
20/05:30pm 26.5 31.6 23.4 83 2.1 SSW 2 7 1 4 1008.4 1008.2 13.2
20/05:00pm 26.4 31.8 23.3 83 2.1 CALM 0 6 0 3 1007.9 1007.7 13.2
20/04:30pm 26.6 31.3 22.7 79 2.6 NNE 2 7 1 4 1007.6 1007.4 13.2
20/04:00pm 25.8 29.6 22.7 83 2.1 E 7 13 4 7 1007.2 1007.0 13.2
20/03:30pm 26.0 29.6 22.3 80 2.5 NNW 7 13 4 7 1006.7 1006.5 13.2
20/03:00pm 25.3 27.8 21.0 77 2.8 N 9 15 5 8 1007.3 1007.1 13.2
20/02:30pm 24.8 24.1 20.3 76 2.9 N 24 37 13 20 1006.7 1006.5 13.0
20/02:15pm 24.2 22.5 19.9 77 2.8 E 28 54 15 29 1007.8 1007.6 9.4
20/02:00pm 26.3 27.3 20.2 69 4.0 ESE 15 43 8 23 1006.9 1006.7 0.2
20/01:47pm 28.8 28.9 19.1 55 6.3 ENE 17 35 9 19 1006.4 1006.2 0.0
20/01:30pm 33.9 34.5 20.3 45 9.1 NNW 17 24 9 13 1006.0 1005.8 0.0
20/01:00pm 35.3 37.0 21.6 45 9.4 NNW 15 22 8 12 1006.5 1006.3 0.0
20/12:30pm 35.6 37.8 20.3 40 10.3 SW 9 11 5 6 1006.9 1006.7 0.0
20/12:00pm 34.9 37.7 20.8 43 9.5 WNW 7 13 4 7 1007.3 1007.1 0.0
20/11:30am 34.3 37.7 21.7 47 8.6 NNE 6 11 3 6 1008.1 1007.9 0.0
20/11:00am 33.7 37.0 21.5 49 8.3 SSE 6 9 3 5 1008.6 1008.4 0.0

Other Formats:

Comma delimited format used in spreadsheet applications
http://www.bom.gov.au/fwo/IDW60801/IDW60801.94100.axf

JavaScript Object Notation format (JSON) in row-major order
http://www.bom.gov.au/fwo/IDW60801/IDW60801.94100.json